createdAt,value
2018-07-05T00:01:42.336Z,48.10
2018-07-05T00:06:55.343Z,48.50
2018-07-05T00:09:34.999Z,48.70
2018-07-05T00:12:14.554Z,49.60
2018-07-05T00:14:54.188Z,49.10
2018-07-05T00:17:33.695Z,49.20
2018-07-05T00:20:13.390Z,49.30
2018-07-05T00:22:53.011Z,49.40
2018-07-05T00:25:32.460Z,49.60
2018-07-05T00:28:11.958Z,49.90
2018-07-05T00:30:51.641Z,50.00
2018-07-05T00:33:31.267Z,50.10
2018-07-05T00:36:10.697Z,50.10
2018-07-05T00:41:23.829Z,51.10
2018-07-05T00:44:03.656Z,50.60
2018-07-05T00:46:43.328Z,50.60
2018-07-05T00:49:22.888Z,50.80
2018-07-05T00:52:02.580Z,50.90
2018-07-05T00:54:42.309Z,51.50
2018-07-05T00:57:21.883Z,51.20
2018-07-05T01:00:01.488Z,51.50
2018-07-05T01:02:41.071Z,51.50
2018-07-05T01:05:20.719Z,51.40
2018-07-05T01:08:00.157Z,51.70
2018-07-05T01:10:39.823Z,51.90
2018-07-05T01:13:19.212Z,52.10
2018-07-05T01:15:58.818Z,52.20
2018-07-05T01:18:38.723Z,52.30
2018-07-05T01:21:18.244Z,52.80
2018-07-05T01:23:57.903Z,53.20
2018-07-05T01:26:37.498Z,53.40
2018-07-05T01:29:17.236Z,53.50
2018-07-05T01:31:56.814Z,54.10
2018-07-05T01:34:36.376Z,54.60
2018-07-05T01:37:15.980Z,54.70
2018-07-05T01:39:55.775Z,55.50
2018-07-05T01:42:35.182Z,55.50
2018-07-05T01:45:15.077Z,55.50
2018-07-05T01:47:54.927Z,55.80
2018-07-05T01:50:34.542Z,56.30
2018-07-05T01:53:14.112Z,56.90
2018-07-05T01:58:27.204Z,57.70
2018-07-05T02:01:06.879Z,58.00
2018-07-05T02:03:46.521Z,58.60
2018-07-05T02:06:26.015Z,58.90
2018-07-05T02:09:05.554Z,59.40
2018-07-05T02:11:45.145Z,60.00
2018-07-05T02:16:58.165Z,61.20
2018-07-05T02:19:37.912Z,61.50
2018-07-05T02:22:17.491Z,62.40
2018-07-05T02:24:56.932Z,62.70
2018-07-05T02:27:36.707Z,62.40
2018-07-05T02:30:16.241Z,63.10
2018-07-05T02:32:55.775Z,62.70
2018-07-05T02:35:35.483Z,63.10
2018-07-05T02:38:20.622Z,63.40
2018-07-05T02:41:00.417Z,63.80
2018-07-05T02:43:40.052Z,64.90
2018-07-05T02:46:19.679Z,64.90
2018-07-05T02:48:59.379Z,65.50
2018-07-05T02:51:39.129Z,66.30
2018-07-05T02:54:18.939Z,66.60
2018-07-05T02:56:58.631Z,67.20
2018-07-05T02:59:38.428Z,67.80
2018-07-05T03:02:18.280Z,68.40
2018-07-05T03:04:57.792Z,69.00
2018-07-05T03:07:37.250Z,69.00
2018-07-05T03:10:16.739Z,70.00
2018-07-05T03:12:56.385Z,70.60
2018-07-05T03:15:35.979Z,71.40
2018-07-05T03:18:15.615Z,71.80
2018-07-05T03:20:55.228Z,72.70
2018-07-05T03:23:35.387Z,73.40
2018-07-05T03:26:15.035Z,74.60
2018-07-05T03:31:28.200Z,75.80
2018-07-05T03:36:41.214Z,77.80
2018-07-05T03:39:20.899Z,78.30
2018-07-05T03:42:00.624Z,78.80
2018-07-05T03:44:40.385Z,79.20
2018-07-05T03:47:20.030Z,80.40
2018-07-05T03:49:59.640Z,80.50
2018-07-05T03:52:39.277Z,81.00
2018-07-05T03:55:18.815Z,81.60
2018-07-05T03:57:58.495Z,81.60
2018-07-05T04:00:38.148Z,82.20
2018-07-05T04:03:17.847Z,82.20
2018-07-05T04:08:30.903Z,81.80
2018-07-05T04:11:10.637Z,82.30
2018-07-05T04:13:50.375Z,81.50
2018-07-05T04:16:29.900Z,81.00
2018-07-05T04:19:09.395Z,81.20
2018-07-05T04:21:48.891Z,80.40
2018-07-05T04:27:01.963Z,79.80
2018-07-05T04:32:15.047Z,79.20
2018-07-05T04:34:54.608Z,79.30
2018-07-05T04:37:34.244Z,79.40
2018-07-05T04:40:13.845Z,81.20
2018-07-05T04:42:53.347Z,82.00
2018-07-05T04:48:06.465Z,82.00
2018-07-05T04:50:46.197Z,81.80
2018-07-05T04:53:25.778Z,81.60
2018-07-05T04:56:05.414Z,81.50
2018-07-05T04:58:46.440Z,81.90
2018-07-05T05:01:26.052Z,81.90
2018-07-05T05:04:05.792Z,81.70
2018-07-05T05:06:45.534Z,81.60
2018-07-05T05:09:25.123Z,81.30
2018-07-05T05:12:05.021Z,81.60
2018-07-05T05:14:44.459Z,81.80
2018-07-05T05:17:24.097Z,82.50
2018-07-05T05:20:03.872Z,81.70
2018-07-05T05:22:43.284Z,81.50
2018-07-05T05:27:56.427Z,81.40
2018-07-05T05:30:36.087Z,80.80
2018-07-05T05:33:15.693Z,80.50
2018-07-05T05:35:55.397Z,80.00
2018-07-05T05:38:34.987Z,79.50
2018-07-05T05:43:48.099Z,79.50
2018-07-05T05:46:27.707Z,79.70
2018-07-05T05:49:07.397Z,79.70
2018-07-05T05:51:47.125Z,78.80
2018-07-05T05:59:33.853Z,78.20
2018-07-05T06:02:13.364Z,76.80
2018-07-05T06:04:53.177Z,76.00
2018-07-05T06:07:32.924Z,75.60
2018-07-05T06:10:12.652Z,76.00
2018-07-05T06:12:52.162Z,75.60
2018-07-05T06:15:31.784Z,74.70
2018-07-05T06:18:11.456Z,74.00
2018-07-05T06:20:51.291Z,73.70
2018-07-05T06:23:31.083Z,73.40
2018-07-05T06:26:10.650Z,73.00
2018-07-05T06:28:50.272Z,73.10
2018-07-05T06:31:29.976Z,72.70
2018-07-05T06:34:10.553Z,72.20
2018-07-05T06:36:50.467Z,72.50
2018-07-05T06:39:30.226Z,71.40
2018-07-05T06:42:10.370Z,70.80
2018-07-05T06:47:24.358Z,69.70
2018-07-05T06:52:37.696Z,71.00
2018-07-05T06:55:17.303Z,70.50
2018-07-05T07:00:31.723Z,66.90
2018-07-05T07:03:11.273Z,67.20
2018-07-05T07:05:50.721Z,67.30
2018-07-05T07:08:30.476Z,67.20
2018-07-05T07:13:43.825Z,68.30
2018-07-05T07:16:23.628Z,67.90
2018-07-05T07:21:36.897Z,66.50
2018-07-05T07:24:16.484Z,66.30
2018-07-05T07:26:56.212Z,66.40
2018-07-05T07:32:09.548Z,63.10
2018-07-05T07:34:49.116Z,61.80
2018-07-05T07:37:28.612Z,61.10
2018-07-05T07:40:08.365Z,60.10
2018-07-05T07:42:35.591Z,56.60
2018-07-05T07:45:02.798Z,57.00
2018-07-05T07:47:29.945Z,55.00
2018-07-05T07:49:57.084Z,53.60
2018-07-05T07:52:24.225Z,52.20
2018-07-05T07:54:51.343Z,52.60
2018-07-05T07:57:18.480Z,50.80
2018-07-05T08:02:13.015Z,51.10
2018-07-05T08:04:40.412Z,51.60
2018-07-05T08:07:07.553Z,51.70
2018-07-05T08:12:02.133Z,51.30
2018-07-05T08:14:30.180Z,51.10
2018-07-05T08:16:57.324Z,51.10
2018-07-05T08:21:51.912Z,49.80
2018-07-05T08:24:19.027Z,48.20
2018-07-05T08:26:46.221Z,49.10
2018-07-05T08:29:13.336Z,49.20
2018-07-05T08:31:40.578Z,49.10
2018-07-05T08:34:07.785Z,47.70
2018-07-05T08:36:35.012Z,47.70
2018-07-05T08:39:02.180Z,48.00
2018-07-05T08:41:29.350Z,47.70
2018-07-05T08:43:56.544Z,47.50
2018-07-05T08:46:23.691Z,47.70
2018-07-05T08:51:18.218Z,48.80
2018-07-05T08:58:40.896Z,49.10
2018-07-05T09:01:08.072Z,48.30
2018-07-05T09:03:35.385Z,47.90
2018-07-05T09:06:02.962Z,48.00
2018-07-05T09:08:31.028Z,47.20
2018-07-05T09:13:25.660Z,46.70
2018-07-05T09:18:21.326Z,45.60
2018-07-05T09:20:48.425Z,45.90
2018-07-05T09:23:15.672Z,45.60
2018-07-05T09:25:42.745Z,46.10
2018-07-05T09:28:09.909Z,46.80
2018-07-05T09:30:37.057Z,46.50
2018-07-05T09:33:04.187Z,46.60
2018-07-05T09:35:32.129Z,46.40
2018-07-05T09:37:59.264Z,45.60
2018-07-05T09:40:26.464Z,45.50
2018-07-05T09:42:53.724Z,45.60
2018-07-05T09:45:21.240Z,45.50
2018-07-05T09:47:48.387Z,45.60
2018-07-05T09:50:15.524Z,45.00
2018-07-05T09:52:42.721Z,45.00
2018-07-05T09:55:10.891Z,44.00
2018-07-05T09:57:38.170Z,44.20
2018-07-05T10:00:05.695Z,44.10
2018-07-05T10:02:33.121Z,43.60
2018-07-05T10:07:27.888Z,43.30
2018-07-05T10:09:55.040Z,43.20
2018-07-05T10:12:22.241Z,43.20
2018-07-05T10:14:49.504Z,42.90
2018-07-05T10:17:16.704Z,42.70
2018-07-05T10:19:43.839Z,42.30
2018-07-05T10:22:10.968Z,42.10
2018-07-05T10:24:38.120Z,42.00
2018-07-05T10:27:05.373Z,42.80
2018-07-05T10:29:44.986Z,42.50
2018-07-05T10:32:24.534Z,42.40
2018-07-05T10:34:52.207Z,42.50
2018-07-05T10:37:22.415Z,42.40
2018-07-05T10:40:02.108Z,42.00
2018-07-05T10:42:41.423Z,42.60
2018-07-05T10:45:20.776Z,42.60
2018-07-05T10:48:00.932Z,42.80
2018-07-05T10:50:40.621Z,42.70
2018-07-05T10:53:20.305Z,42.50
2018-07-05T10:56:00.060Z,42.20
2018-07-05T10:58:39.592Z,42.40
2018-07-05T11:01:19.080Z,42.80
2018-07-05T11:06:32.268Z,42.30
2018-07-05T11:09:12.026Z,41.50
2018-07-05T11:16:58.378Z,41.10
2018-07-05T11:19:37.982Z,41.90
2018-07-05T11:22:17.555Z,41.30
2018-07-05T11:24:57.481Z,42.00
2018-07-05T11:27:37.148Z,42.40
2018-07-05T11:30:16.618Z,42.80
2018-07-05T11:32:56.300Z,42.90
2018-07-05T11:35:35.755Z,43.10
2018-07-05T11:38:16.351Z,42.80
2018-07-05T11:40:55.912Z,42.90
2018-07-05T11:43:35.411Z,43.20
2018-07-05T11:46:14.987Z,43.70
2018-07-05T11:48:56.062Z,43.70
2018-07-05T11:51:36.197Z,44.10
2018-07-05T11:56:49.634Z,43.90
2018-07-05T11:59:29.619Z,43.60
2018-07-05T12:02:09.213Z,43.90
2018-07-05T12:04:49.226Z,43.60
2018-07-05T12:07:29.051Z,43.90
2018-07-05T12:10:08.709Z,43.60
2018-07-05T12:12:48.508Z,44.00
2018-07-05T12:15:28.169Z,43.80
2018-07-05T12:18:08.020Z,43.40
2018-07-05T12:20:47.538Z,43.30
2018-07-05T12:23:27.210Z,43.10
2018-07-05T12:26:06.887Z,42.70
2018-07-05T12:28:46.484Z,42.40
2018-07-05T12:33:59.618Z,42.40
2018-07-05T12:36:39.128Z,42.50
2018-07-05T12:39:18.885Z,41.60
2018-07-05T12:41:58.867Z,42.20
2018-07-05T12:44:38.354Z,41.40
2018-07-05T12:47:18.011Z,41.60
2018-07-05T12:49:57.721Z,41.50
2018-07-05T12:52:37.343Z,41.60
2018-07-05T12:57:51.349Z,41.50
2018-07-05T13:00:31.056Z,41.90
2018-07-05T13:03:10.629Z,42.40
2018-07-05T13:05:50.247Z,43.20
2018-07-05T13:08:29.746Z,43.60
2018-07-05T13:11:09.380Z,43.20
2018-07-05T13:13:49.910Z,42.90
2018-07-05T13:16:29.626Z,43.00
2018-07-05T13:19:09.372Z,43.20
2018-07-05T13:21:48.932Z,43.30
2018-07-05T13:24:28.557Z,43.20
2018-07-05T13:27:08.153Z,42.80
2018-07-05T13:29:47.808Z,42.70
2018-07-05T13:32:27.247Z,43.10
2018-07-05T13:35:06.706Z,42.80
2018-07-05T13:37:46.276Z,43.00
2018-07-05T13:40:25.819Z,42.70
2018-07-05T13:43:05.547Z,43.00
2018-07-05T13:45:45.320Z,43.30
2018-07-05T13:48:24.787Z,43.80
2018-07-05T13:51:04.397Z,43.60
2018-07-05T13:56:17.520Z,43.60
2018-07-05T13:58:57.164Z,43.90
2018-07-05T14:01:36.916Z,43.80
2018-07-05T14:04:16.810Z,44.10
2018-07-05T14:06:56.365Z,44.00
2018-07-05T14:09:35.848Z,43.80
2018-07-05T14:17:11.309Z,42.80
2018-07-05T14:19:51.741Z,43.40
2018-07-05T14:22:32.516Z,43.90
2018-07-05T14:25:12.277Z,44.50
2018-07-05T14:27:52.495Z,45.00
2018-07-05T14:30:32.308Z,45.20
2018-07-05T14:35:45.310Z,45.40
2018-07-05T14:38:24.978Z,45.90
2018-07-05T14:41:04.519Z,46.00
2018-07-05T14:43:44.232Z,45.80
2018-07-05T14:46:24.018Z,44.90
2018-07-05T14:49:03.662Z,44.50
2018-07-05T14:54:17.302Z,44.30
2018-07-05T14:56:57.054Z,44.00
2018-07-05T14:59:36.604Z,43.60
2018-07-05T15:02:16.246Z,43.40
2018-07-05T15:04:56.848Z,43.60
2018-07-05T15:07:36.261Z,43.40
2018-07-05T15:10:16.035Z,42.90
2018-07-05T15:12:55.696Z,43.00
2018-07-05T15:15:35.393Z,43.00
2018-07-05T15:18:15.133Z,43.60
2018-07-05T15:20:54.899Z,43.50
2018-07-05T15:23:34.682Z,42.80
2018-07-05T15:26:14.628Z,42.70
2018-07-05T15:28:54.517Z,43.20
2018-07-05T15:31:34.235Z,43.50
2018-07-05T15:34:14.012Z,43.30
2018-07-05T15:36:53.894Z,43.10
2018-07-05T15:39:34.558Z,42.90
2018-07-05T15:42:15.433Z,42.80
2018-07-05T15:44:55.022Z,42.60
2018-07-05T15:47:35.032Z,41.20
2018-07-05T15:50:14.886Z,40.60
2018-07-05T15:52:56.318Z,40.70
2018-07-05T15:55:35.939Z,41.50
2018-07-05T15:58:15.663Z,39.90
2018-07-05T16:03:29.020Z,37.90
2018-07-05T16:06:08.754Z,37.40
2018-07-05T16:08:48.432Z,36.30
2018-07-05T16:11:27.827Z,35.70
2018-07-05T16:14:07.441Z,35.30
2018-07-05T16:16:47.084Z,35.20
2018-07-05T16:19:26.815Z,34.00
2018-07-05T16:22:06.467Z,35.00
2018-07-05T16:24:46.149Z,34.90
2018-07-05T16:27:25.800Z,32.70
2018-07-05T16:30:05.679Z,32.00
2018-07-05T16:32:45.482Z,31.70
2018-07-05T16:35:25.321Z,31.80
2018-07-05T16:38:04.936Z,31.20
2018-07-05T16:40:44.668Z,31.90
2018-07-05T16:45:58.059Z,31.50
2018-07-05T16:48:38.492Z,31.40
2018-07-05T16:51:18.009Z,31.50
2018-07-05T16:53:57.744Z,31.00
2018-07-05T16:56:37.304Z,31.50
2018-07-05T16:59:16.862Z,31.00
2018-07-05T17:01:58.257Z,31.30
2018-07-05T17:04:37.884Z,32.00
2018-07-05T17:07:17.663Z,32.70
2018-07-05T17:09:57.303Z,31.70
2018-07-05T17:12:36.859Z,31.10
2018-07-05T17:15:16.513Z,32.30
2018-07-05T17:17:56.230Z,31.70
2018-07-05T17:20:35.895Z,30.90
2018-07-05T17:23:15.447Z,31.30
2018-07-05T17:25:55.200Z,31.50
2018-07-05T17:28:34.960Z,31.50
2018-07-05T17:31:14.783Z,31.20
2018-07-05T17:33:54.636Z,31.30
2018-07-05T17:36:34.433Z,31.40
2018-07-05T17:39:13.996Z,31.00
2018-07-05T17:41:53.850Z,31.20
2018-07-05T17:44:33.336Z,31.90
2018-07-05T17:47:13.205Z,32.20
2018-07-05T17:49:53.344Z,32.20
2018-07-05T17:52:32.991Z,32.10
2018-07-05T17:55:12.843Z,32.90
2018-07-05T17:57:52.669Z,33.10
2018-07-05T18:00:32.797Z,32.10
2018-07-05T18:03:12.267Z,33.20
2018-07-05T18:05:52.083Z,33.00
2018-07-05T18:08:31.592Z,33.70
2018-07-05T18:16:18.687Z,33.60
2018-07-05T18:18:58.447Z,34.20
2018-07-05T18:21:38.209Z,34.10
2018-07-05T18:26:51.451Z,34.10
2018-07-05T18:29:31.117Z,34.80
2018-07-05T18:32:10.647Z,34.30
2018-07-05T18:34:50.223Z,34.20
2018-07-05T18:40:03.220Z,34.20
2018-07-05T18:42:42.763Z,34.70
2018-07-05T18:47:56.122Z,38.40
2018-07-05T18:50:35.770Z,40.40
2018-07-05T18:53:15.369Z,41.70
2018-07-05T18:55:55.010Z,42.40
2018-07-05T18:58:34.620Z,43.10
2018-07-05T19:01:14.354Z,43.70
2018-07-05T19:03:53.832Z,44.60
2018-07-05T19:06:34.323Z,46.40
2018-07-05T19:09:13.886Z,48.20
2018-07-05T19:11:53.764Z,49.30
2018-07-05T19:17:07.659Z,50.70
2018-07-05T19:19:47.299Z,51.60
2018-07-05T19:22:27.113Z,52.20
2018-07-05T19:25:06.831Z,52.70
2018-07-05T19:27:47.880Z,53.30
2018-07-05T19:30:27.359Z,54.10
2018-07-05T19:33:06.975Z,54.00
2018-07-05T19:35:46.619Z,54.60
2018-07-05T19:38:26.390Z,54.80
2018-07-05T19:41:06.161Z,55.30
2018-07-05T19:43:45.923Z,55.60
2018-07-05T19:46:25.999Z,55.90
2018-07-05T19:49:05.744Z,56.20
2018-07-05T19:51:45.541Z,56.50
2018-07-05T19:54:25.001Z,56.80
2018-07-05T19:57:04.517Z,57.00
2018-07-05T19:59:44.127Z,57.30
2018-07-05T20:02:24.028Z,57.80
2018-07-05T20:05:03.813Z,58.10
2018-07-05T20:07:43.403Z,58.00
2018-07-05T20:10:23.123Z,58.20
2018-07-05T20:13:02.785Z,58.50
2018-07-05T20:15:42.503Z,58.60
2018-07-05T20:18:22.044Z,58.90
2018-07-05T20:21:01.839Z,59.20
2018-07-05T20:23:41.483Z,59.60
2018-07-05T20:26:21.501Z,59.90
2018-07-05T20:29:01.109Z,60.50
2018-07-05T20:31:40.564Z,60.90
2018-07-05T20:34:20.107Z,61.40
2018-07-05T20:36:59.857Z,62.00
2018-07-05T20:39:39.313Z,62.70
2018-07-05T20:42:18.704Z,63.30
2018-07-05T20:44:59.398Z,63.80
2018-07-05T20:50:12.436Z,65.00
2018-07-05T20:52:52.072Z,65.50
2018-07-05T20:55:31.950Z,66.20
2018-07-05T20:58:11.697Z,66.80
2018-07-05T21:00:51.590Z,67.20
2018-07-05T21:03:31.395Z,67.80
2018-07-05T21:06:10.860Z,68.50
2018-07-05T21:08:50.395Z,69.40
2018-07-05T21:11:29.919Z,70.30
2018-07-05T21:14:09.571Z,71.20
2018-07-05T21:16:49.575Z,72.50
2018-07-05T21:19:29.367Z,72.80
2018-07-05T21:22:09.326Z,73.90
2018-07-05T21:24:49.091Z,74.70
2018-07-05T21:27:28.994Z,75.70
2018-07-05T21:30:08.974Z,76.30
2018-07-05T21:32:48.891Z,77.40
2018-07-05T21:35:28.673Z,78.80
2018-07-05T21:38:08.395Z,80.20
2018-07-05T21:40:48.230Z,81.60
2018-07-05T21:43:28.771Z,82.90
2018-07-05T21:46:08.510Z,84.20
2018-07-05T21:48:48.268Z,85.60
2018-07-05T21:51:27.835Z,86.80
2018-07-05T21:54:08.478Z,88.30
2018-07-05T21:56:48.195Z,89.40
2018-07-05T21:59:27.912Z,90.30
2018-07-05T22:02:07.582Z,90.60
2018-07-05T22:04:47.161Z,91.20
2018-07-05T22:07:26.631Z,91.70
2018-07-05T22:12:39.859Z,92.40
2018-07-05T22:15:19.468Z,92.90
2018-07-05T22:18:04.471Z,93.30
2018-07-05T22:20:49.773Z,93.70
2018-07-05T22:23:34.895Z,94.10
2018-07-05T22:26:20.116Z,94.50
2018-07-05T22:32:37.914Z,95.10
2018-07-05T22:35:17.674Z,95.60
2018-07-05T22:37:57.251Z,96.00
2018-07-05T22:40:36.735Z,96.40
2018-07-05T22:43:16.374Z,96.70
2018-07-05T22:45:55.833Z,97.20
2018-07-05T22:48:35.317Z,97.50
2018-07-05T22:53:48.890Z,98.10
2018-07-05T22:56:28.629Z,98.40
2018-07-05T22:59:08.341Z,98.90
2018-07-05T23:01:47.962Z,99.40
2018-07-05T23:04:27.590Z,99.80
2018-07-05T23:07:07.092Z,99.90
2018-07-05T23:09:47.003Z,99.90
2018-07-05T23:12:26.640Z,99.90
2018-07-05T23:15:06.256Z,99.90
2018-07-05T23:17:46.296Z,99.90
2018-07-05T23:20:26.419Z,99.90
2018-07-05T23:23:06.269Z,99.90
2018-07-05T23:25:45.912Z,99.90
2018-07-05T23:30:59.239Z,99.90
2018-07-05T23:33:38.639Z,99.90
2018-07-05T23:38:51.925Z,99.90
2018-07-05T23:41:31.564Z,99.90
2018-07-05T23:49:18.407Z,99.90
2018-07-05T23:51:58.171Z,99.90
2018-07-05T23:54:37.659Z,99.90
2018-07-05T23:57:17.378Z,99.90
2018-07-05T23:59:56.780Z,99.90
